sensor_id;sensor_type;location;lat;lon;timestamp;pressure;altitude;pressure_sealevel;temperature
18782;BMP180;9519;51.890;8.970;2022-07-11T00:02:38;99987.00;;;13.70
18782;BMP180;9519;51.890;8.970;2022-07-11T00:07:42;99980.00;;;13.70
18782;BMP180;9519;51.890;8.970;2022-07-11T00:12:45;99980.00;;;13.70
18782;BMP180;9519;51.890;8.970;2022-07-11T00:17:47;99985.00;;;13.70
18782;BMP180;9519;51.890;8.970;2022-07-11T00:22:52;99979.00;;;13.70
18782;BMP180;9519;51.890;8.970;2022-07-11T00:27:56;99970.00;;;13.70
18782;BMP180;9519;51.890;8.970;2022-07-11T00:32:58;99971.00;;;13.80
18782;BMP180;9519;51.890;8.970;2022-07-11T00:38:00;99970.00;;;13.80
18782;BMP180;9519;51.890;8.970;2022-07-11T00:43:05;99969.00;;;13.70
18782;BMP180;9519;51.890;8.970;2022-07-11T00:48:07;99965.00;;;13.70
18782;BMP180;9519;51.890;8.970;2022-07-11T00:53:09;99969.00;;;13.70
18782;BMP180;9519;51.890;8.970;2022-07-11T00:58:13;99966.00;;;13.70
18782;BMP180;9519;51.890;8.970;2022-07-11T01:03:16;99958.00;;;13.70
18782;BMP180;9519;51.890;8.970;2022-07-11T01:08:18;99957.00;;;13.70
18782;BMP180;9519;51.890;8.970;2022-07-11T01:13:21;99956.00;;;13.70
18782;BMP180;9519;51.890;8.970;2022-07-11T01:18:23;99955.00;;;13.70
18782;BMP180;9519;51.890;8.970;2022-07-11T01:23:27;99952.00;;;13.70
18782;BMP180;9519;51.890;8.970;2022-07-11T01:28:29;99943.00;;;13.70
18782;BMP180;9519;51.890;8.970;2022-07-11T01:33:32;99949.00;;;13.70
18782;BMP180;9519;51.890;8.970;2022-07-11T01:38:36;99949.00;;;13.70
18782;BMP180;9519;51.890;8.970;2022-07-11T01:43:38;99941.00;;;13.70
18782;BMP180;9519;51.890;8.970;2022-07-11T01:48:40;99942.00;;;13.70
18782;BMP180;9519;51.890;8.970;2022-07-11T01:53:44;99925.00;;;13.70
18782;BMP180;9519;51.890;8.970;2022-07-11T01:58:46;99927.00;;;13.70
18782;BMP180;9519;51.890;8.970;2022-07-11T02:03:48;99928.00;;;13.70
18782;BMP180;9519;51.890;8.970;2022-07-11T02:08:51;99932.00;;;13.70
18782;BMP180;9519;51.890;8.970;2022-07-11T02:13:53;99929.00;;;13.70
18782;BMP180;9519;51.890;8.970;2022-07-11T02:18:55;99923.00;;;13.60
18782;BMP180;9519;51.890;8.970;2022-07-11T02:23:59;99925.00;;;13.60
18782;BMP180;9519;51.890;8.970;2022-07-11T02:29:02;99915.00;;;13.60
18782;BMP180;9519;51.890;8.970;2022-07-11T02:34:04;99917.00;;;13.70
18782;BMP180;9519;51.890;8.970;2022-07-11T02:39:07;99921.00;;;13.70
18782;BMP180;9519;51.890;8.970;2022-07-11T02:44:10;99918.00;;;13.70
18782;BMP180;9519;51.890;8.970;2022-07-11T02:49:12;99922.00;;;13.70
18782;BMP180;9519;51.890;8.970;2022-07-11T02:54:15;99924.00;;;13.70
18782;BMP180;9519;51.890;8.970;2022-07-11T02:59:17;99927.00;;;13.80
18782;BMP180;9519;51.890;8.970;2022-07-11T03:04:20;99918.00;;;13.80
18782;BMP180;9519;51.890;8.970;2022-07-11T03:09:23;99907.00;;;13.80
18782;BMP180;9519;51.890;8.970;2022-07-11T03:14:25;99911.00;;;13.90
18782;BMP180;9519;51.890;8.970;2022-07-11T03:19:27;99910.00;;;13.90
18782;BMP180;9519;51.890;8.970;2022-07-11T03:24:31;99916.00;;;13.90
18782;BMP180;9519;51.890;8.970;2022-07-11T03:29:33;99907.00;;;13.90
18782;BMP180;9519;51.890;8.970;2022-07-11T03:34:35;99910.00;;;13.90
18782;BMP180;9519;51.890;8.970;2022-07-11T03:39:39;99911.00;;;14.00
18782;BMP180;9519;51.890;8.970;2022-07-11T03:44:41;99912.00;;;14.00
18782;BMP180;9519;51.890;8.970;2022-07-11T03:49:43;99913.00;;;14.10
18782;BMP180;9519;51.890;8.970;2022-07-11T03:54:46;99909.00;;;14.10
18782;BMP180;9519;51.890;8.970;2022-07-11T03:59:48;99901.00;;;14.10
18782;BMP180;9519;51.890;8.970;2022-07-11T04:04:50;99899.00;;;14.10
18782;BMP180;9519;51.890;8.970;2022-07-11T04:09:54;99902.00;;;14.10
18782;BMP180;9519;51.890;8.970;2022-07-11T04:14:56;99897.00;;;14.10
18782;BMP180;9519;51.890;8.970;2022-07-11T04:19:58;99900.00;;;14.10
18782;BMP180;9519;51.890;8.970;2022-07-11T04:25:04;99897.00;;;14.20
18782;BMP180;9519;51.890;8.970;2022-07-11T04:30:07;99901.00;;;14.20
18782;BMP180;9519;51.890;8.970;2022-07-11T04:35:10;99901.00;;;14.20
18782;BMP180;9519;51.890;8.970;2022-07-11T04:40:13;99902.00;;;14.20
18782;BMP180;9519;51.890;8.970;2022-07-11T04:45:15;99914.00;;;14.20
18782;BMP180;9519;51.890;8.970;2022-07-11T04:50:17;99906.00;;;14.20
18782;BMP180;9519;51.890;8.970;2022-07-11T04:55:21;99912.00;;;14.20
18782;BMP180;9519;51.890;8.970;2022-07-11T05:00:23;99909.00;;;14.10
18782;BMP180;9519;51.890;8.970;2022-07-11T05:05:25;99909.00;;;14.10
18782;BMP180;9519;51.890;8.970;2022-07-11T05:10:32;99920.00;;;14.10
18782;BMP180;9519;51.890;8.970;2022-07-11T05:15:36;99917.00;;;14.20
18782;BMP180;9519;51.890;8.970;2022-07-11T05:20:40;99914.00;;;14.20
18782;BMP180;9519;51.890;8.970;2022-07-11T05:25:43;99924.00;;;14.20
18782;BMP180;9519;51.890;8.970;2022-07-11T05:30:45;99929.00;;;14.20
18782;BMP180;9519;51.890;8.970;2022-07-11T05:35:47;99933.00;;;14.20
18782;BMP180;9519;51.890;8.970;2022-07-11T05:40:51;99935.00;;;14.30
18782;BMP180;9519;51.890;8.970;2022-07-11T05:45:53;99923.00;;;14.30
18782;BMP180;9519;51.890;8.970;2022-07-11T05:50:55;99931.00;;;14.40
18782;BMP180;9519;51.890;8.970;2022-07-11T05:55:58;99929.00;;;14.40
18782;BMP180;9519;51.890;8.970;2022-07-11T06:01:00;99927.00;;;14.50
18782;BMP180;9519;51.890;8.970;2022-07-11T06:06:03;99931.00;;;14.50
18782;BMP180;9519;51.890;8.970;2022-07-11T06:11:10;99929.00;;;14.50
18782;BMP180;9519;51.890;8.970;2022-07-11T06:16:12;99931.00;;;14.40
18782;BMP180;9519;51.890;8.970;2022-07-11T06:21:14;99942.00;;;14.40
18782;BMP180;9519;51.890;8.970;2022-07-11T06:26:18;99944.00;;;14.40
18782;BMP180;9519;51.890;8.970;2022-07-11T06:31:20;99939.00;;;14.40
18782;BMP180;9519;51.890;8.970;2022-07-11T06:36:22;99950.00;;;14.40
18782;BMP180;9519;51.890;8.970;2022-07-11T06:41:26;99949.00;;;14.30
18782;BMP180;9519;51.890;8.970;2022-07-11T06:46:28;99959.00;;;14.20
18782;BMP180;9519;51.890;8.970;2022-07-11T06:51:30;99961.00;;;14.20
18782;BMP180;9519;51.890;8.970;2022-07-11T06:56:33;99964.00;;;14.10
18782;BMP180;9519;51.890;8.970;2022-07-11T07:01:35;99971.00;;;14.10
18782;BMP180;9519;51.890;8.970;2022-07-11T07:06:38;99979.00;;;14.10
18782;BMP180;9519;51.890;8.970;2022-07-11T07:11:41;99980.00;;;13.90
18782;BMP180;9519;51.890;8.970;2022-07-11T07:16:43;99979.00;;;13.90
18782;BMP180;9519;51.890;8.970;2022-07-11T07:21:45;99991.00;;;13.90
18782;BMP180;9519;51.890;8.970;2022-07-11T07:26:49;99987.00;;;14.00
18782;BMP180;9519;51.890;8.970;2022-07-11T07:31:52;99985.00;;;14.00
18782;BMP180;9519;51.890;8.970;2022-07-11T07:36:54;99988.00;;;14.00
18782;BMP180;9519;51.890;8.970;2022-07-11T07:41:57;99990.00;;;14.10
18782;BMP180;9519;51.890;8.970;2022-07-11T07:46:59;99991.00;;;14.20
18782;BMP180;9519;51.890;8.970;2022-07-11T07:52:02;99996.00;;;14.30
18782;BMP180;9519;51.890;8.970;2022-07-11T07:57:06;99994.00;;;14.40
18782;BMP180;9519;51.890;8.970;2022-07-11T08:02:08;99996.00;;;14.50
18782;BMP180;9519;51.890;8.970;2022-07-11T08:07:10;99993.00;;;14.70
18782;BMP180;9519;51.890;8.970;2022-07-11T08:12:13;99999.00;;;14.90
18782;BMP180;9519;51.890;8.970;2022-07-11T08:17:16;99986.00;;;15.00
18782;BMP180;9519;51.890;8.970;2022-07-11T08:22:18;99996.00;;;15.10
18782;BMP180;9519;51.890;8.970;2022-07-11T08:27:22;100001.00;;;15.20
18782;BMP180;9519;51.890;8.970;2022-07-11T08:32:24;100004.00;;;15.20
18782;BMP180;9519;51.890;8.970;2022-07-11T08:37:26;100003.00;;;15.20
18782;BMP180;9519;51.890;8.970;2022-07-11T08:42:30;100011.00;;;15.30
18782;BMP180;9519;51.890;8.970;2022-07-11T08:47:33;100020.00;;;15.30
18782;BMP180;9519;51.890;8.970;2022-07-11T08:52:38;100021.00;;;15.40
18782;BMP180;9519;51.890;8.970;2022-07-11T08:57:41;100017.00;;;15.40
18782;BMP180;9519;51.890;8.970;2022-07-11T09:02:44;100013.00;;;15.50
18782;BMP180;9519;51.890;8.970;2022-07-11T09:07:48;100018.00;;;15.50
18782;BMP180;9519;51.890;8.970;2022-07-11T09:13:04;100024.00;;;15.60
18782;BMP180;9519;51.890;8.970;2022-07-11T09:18:31;100022.00;;;15.70
18782;BMP180;9519;51.890;8.970;2022-07-11T09:23:34;100035.00;;;15.70
18782;BMP180;9519;51.890;8.970;2022-07-11T09:29:05;100034.00;;;15.60
18782;BMP180;9519;51.890;8.970;2022-07-11T09:34:09;100042.00;;;15.50
18782;BMP180;9519;51.890;8.970;2022-07-11T09:39:15;100037.00;;;15.50
18782;BMP180;9519;51.890;8.970;2022-07-11T09:44:20;100046.00;;;15.50
18782;BMP180;9519;51.890;8.970;2022-07-11T09:49:31;100040.00;;;15.60
18782;BMP180;9519;51.890;8.970;2022-07-11T09:54:33;100044.00;;;15.80
18782;BMP180;9519;51.890;8.970;2022-07-11T09:59:37;100049.00;;;16.00
18782;BMP180;9519;51.890;8.970;2022-07-11T10:04:39;100030.00;;;16.00
18782;BMP180;9519;51.890;8.970;2022-07-11T10:09:41;100032.00;;;16.10
18782;BMP180;9519;51.890;8.970;2022-07-11T10:14:48;100040.00;;;16.10
18782;BMP180;9519;51.890;8.970;2022-07-11T10:20:01;100041.00;;;16.20
18782;BMP180;9519;51.890;8.970;2022-07-11T10:25:17;100046.00;;;16.20
18782;BMP180;9519;51.890;8.970;2022-07-11T10:30:46;100043.00;;;16.20
18782;BMP180;9519;51.890;8.970;2022-07-11T10:35:50;100051.00;;;16.20
18782;BMP180;9519;51.890;8.970;2022-07-11T10:40:55;100055.00;;;16.20
18782;BMP180;9519;51.890;8.970;2022-07-11T10:46:01;100054.00;;;16.20
18782;BMP180;9519;51.890;8.970;2022-07-11T10:51:16;100059.00;;;16.20
18782;BMP180;9519;51.890;8.970;2022-07-11T10:56:53;100118.00;;;16.30
18782;BMP180;9519;51.890;8.970;2022-07-11T11:02:09;100183.00;;;16.30
18782;BMP180;9519;51.890;8.970;2022-07-11T11:07:44;100063.00;;;16.20
18782;BMP180;9519;51.890;8.970;2022-07-11T11:13:12;100188.00;;;16.20
18782;BMP180;9519;51.890;8.970;2022-07-11T11:18:42;100185.00;;;16.20
18782;BMP180;9519;51.890;8.970;2022-07-11T11:23:53;100075.00;;;16.30
18782;BMP180;9519;51.890;8.970;2022-07-11T11:29:06;100184.00;;;16.40
18782;BMP180;9519;51.890;8.970;2022-07-11T11:34:10;100064.00;;;16.50
18782;BMP180;9519;51.890;8.970;2022-07-11T11:39:22;100174.00;;;16.50
18782;BMP180;9519;51.890;8.970;2022-07-11T11:44:24;100075.00;;;16.60
18782;BMP180;9519;51.890;8.970;2022-07-11T11:49:28;100077.00;;;16.70
18782;BMP180;9519;51.890;8.970;2022-07-11T11:54:42;100185.00;;;16.70
18782;BMP180;9519;51.890;8.970;2022-07-11T11:59:46;100069.00;;;16.70
18782;BMP180;9519;51.890;8.970;2022-07-11T12:04:49;100182.00;;;16.70
18782;BMP180;9519;51.890;8.970;2022-07-11T12:09:53;100195.00;;;16.70
18782;BMP180;9519;51.890;8.970;2022-07-11T12:14:57;100188.00;;;16.70
18782;BMP180;9519;51.890;8.970;2022-07-11T12:20:00;100089.00;;;16.70
18782;BMP180;9519;51.890;8.970;2022-07-11T12:25:05;100194.00;;;16.70
18782;BMP180;9519;51.890;8.970;2022-07-11T12:30:22;100086.00;;;16.70
18782;BMP180;9519;51.890;8.970;2022-07-11T12:35:26;100185.00;;;16.70
18782;BMP180;9519;51.890;8.970;2022-07-11T12:40:29;100091.00;;;16.70
18782;BMP180;9519;51.890;8.970;2022-07-11T12:45:32;100086.00;;;16.60
18782;BMP180;9519;51.890;8.970;2022-07-11T12:50:42;100196.00;;;16.60
18782;BMP180;9519;51.890;8.970;2022-07-11T12:55:45;100193.00;;;16.60
18782;BMP180;9519;51.890;8.970;2022-07-11T13:00:57;100186.00;;;16.50
18782;BMP180;9519;51.890;8.970;2022-07-11T13:06:01;100198.00;;;16.50
18782;BMP180;9519;51.890;8.970;2022-07-11T13:11:05;100200.00;;;16.40
18782;BMP180;9519;51.890;8.970;2022-07-11T13:16:07;100091.00;;;16.40
18782;BMP180;9519;51.890;8.970;2022-07-11T13:21:11;100193.00;;;16.40
18782;BMP180;9519;51.890;8.970;2022-07-11T13:26:13;100188.00;;;16.40
18782;BMP180;9519;51.890;8.970;2022-07-11T13:31:16;100183.00;;;16.40
18782;BMP180;9519;51.890;8.970;2022-07-11T13:36:20;100183.00;;;16.50
18782;BMP180;9519;51.890;8.970;2022-07-11T13:41:22;100187.00;;;16.50
18782;BMP180;9519;51.890;8.970;2022-07-11T13:46:24;100181.00;;;16.40
18782;BMP180;9519;51.890;8.970;2022-07-11T13:51:28;100180.00;;;16.40
18782;BMP180;9519;51.890;8.970;2022-07-11T13:56:30;100185.00;;;16.50
18782;BMP180;9519;51.890;8.970;2022-07-11T14:01:32;100178.00;;;16.60
18782;BMP180;9519;51.890;8.970;2022-07-11T14:06:36;100176.00;;;16.60
18782;BMP180;9519;51.890;8.970;2022-07-11T14:11:38;100186.00;;;16.60
18782;BMP180;9519;51.890;8.970;2022-07-11T14:16:40;100180.00;;;16.50
18782;BMP180;9519;51.890;8.970;2022-07-11T14:21:45;100183.00;;;16.50
18782;BMP180;9519;51.890;8.970;2022-07-11T14:26:47;100185.00;;;16.60
18782;BMP180;9519;51.890;8.970;2022-07-11T14:31:52;100187.00;;;16.60
18782;BMP180;9519;51.890;8.970;2022-07-11T14:36:56;100172.00;;;16.70
18782;BMP180;9519;51.890;8.970;2022-07-11T14:41:58;100179.00;;;16.70
18782;BMP180;9519;51.890;8.970;2022-07-11T14:47:01;100168.00;;;16.80
18782;BMP180;9519;51.890;8.970;2022-07-11T14:52:05;100174.00;;;16.80
18782;BMP180;9519;51.890;8.970;2022-07-11T14:57:07;100188.00;;;16.80
18782;BMP180;9519;51.890;8.970;2022-07-11T15:02:11;100180.00;;;16.80
18782;BMP180;9519;51.890;8.970;2022-07-11T15:07:14;100175.00;;;16.80
18782;BMP180;9519;51.890;8.970;2022-07-11T15:12:34;100186.00;;;16.80
18782;BMP180;9519;51.890;8.970;2022-07-11T15:17:38;100180.00;;;16.80
18782;BMP180;9519;51.890;8.970;2022-07-11T15:22:42;100185.00;;;16.90
18782;BMP180;9519;51.890;8.970;2022-07-11T15:27:44;100194.00;;;17.00
18782;BMP180;9519;51.890;8.970;2022-07-11T15:32:46;100178.00;;;16.90
18782;BMP180;9519;51.890;8.970;2022-07-11T15:37:50;100175.00;;;16.90
18782;BMP180;9519;51.890;8.970;2022-07-11T15:42:52;100184.00;;;16.90
18782;BMP180;9519;51.890;8.970;2022-07-11T15:47:56;100176.00;;;16.90
18782;BMP180;9519;51.890;8.970;2022-07-11T15:53:00;100178.00;;;16.90
18782;BMP180;9519;51.890;8.970;2022-07-11T15:58:02;100175.00;;;16.90
18782;BMP180;9519;51.890;8.970;2022-07-11T16:03:05;100181.00;;;17.00
18782;BMP180;9519;51.890;8.970;2022-07-11T16:08:09;100167.00;;;17.20
18782;BMP180;9519;51.890;8.970;2022-07-11T16:13:11;100164.00;;;17.30
18782;BMP180;9519;51.890;8.970;2022-07-11T16:18:14;100168.00;;;17.30
18782;BMP180;9519;51.890;8.970;2022-07-11T16:23:18;100164.00;;;17.30
18782;BMP180;9519;51.890;8.970;2022-07-11T16:28:20;100171.00;;;17.30
18782;BMP180;9519;51.890;8.970;2022-07-11T16:33:22;100156.00;;;17.30
18782;BMP180;9519;51.890;8.970;2022-07-11T16:38:26;100164.00;;;17.40
18782;BMP180;9519;51.890;8.970;2022-07-11T16:43:28;100164.00;;;17.50
18782;BMP180;9519;51.890;8.970;2022-07-11T16:48:31;100165.00;;;17.60
18782;BMP180;9519;51.890;8.970;2022-07-11T16:53:35;100158.00;;;17.60
18782;BMP180;9519;51.890;8.970;2022-07-11T16:58:37;100168.00;;;17.70
18782;BMP180;9519;51.890;8.970;2022-07-11T17:03:40;100161.00;;;17.80
18782;BMP180;9519;51.890;8.970;2022-07-11T17:08:43;100159.00;;;17.80
18782;BMP180;9519;51.890;8.970;2022-07-11T17:13:46;100155.00;;;17.80
18782;BMP180;9519;51.890;8.970;2022-07-11T17:18:48;100153.00;;;17.80
18782;BMP180;9519;51.890;8.970;2022-07-11T17:23:53;100161.00;;;17.80
18782;BMP180;9519;51.890;8.970;2022-07-11T17:28:56;100161.00;;;17.80
18782;BMP180;9519;51.890;8.970;2022-07-11T17:33:58;100166.00;;;17.90
18782;BMP180;9519;51.890;8.970;2022-07-11T17:39:03;100167.00;;;17.90
18782;BMP180;9519;51.890;8.970;2022-07-11T17:44:05;100164.00;;;17.90
18782;BMP180;9519;51.890;8.970;2022-07-11T17:49:07;100160.00;;;17.90
18782;BMP180;9519;51.890;8.970;2022-07-11T17:54:12;100172.00;;;18.00
18782;BMP180;9519;51.890;8.970;2022-07-11T17:59:14;100166.00;;;18.00
18782;BMP180;9519;51.890;8.970;2022-07-11T18:04:16;100166.00;;;17.90
18782;BMP180;9519;51.890;8.970;2022-07-11T18:09:20;100175.00;;;17.90
18782;BMP180;9519;51.890;8.970;2022-07-11T18:14:22;100170.00;;;18.00
18782;BMP180;9519;51.890;8.970;2022-07-11T18:19:27;100178.00;;;18.00
18782;BMP180;9519;51.890;8.970;2022-07-11T18:24:31;100177.00;;;18.00
18782;BMP180;9519;51.890;8.970;2022-07-11T18:29:37;100173.00;;;18.00
18782;BMP180;9519;51.890;8.970;2022-07-11T18:34:40;100180.00;;;18.00
18782;BMP180;9519;51.890;8.970;2022-07-11T18:39:44;100174.00;;;18.00
18782;BMP180;9519;51.890;8.970;2022-07-11T18:45:05;100176.00;;;18.00
18782;BMP180;9519;51.890;8.970;2022-07-11T18:50:09;100180.00;;;18.00
18782;BMP180;9519;51.890;8.970;2022-07-11T18:55:15;100172.00;;;17.90
18782;BMP180;9519;51.890;8.970;2022-07-11T19:00:17;100170.00;;;17.90
18782;BMP180;9519;51.890;8.970;2022-07-11T19:05:19;100178.00;;;17.90
18782;BMP180;9519;51.890;8.970;2022-07-11T19:10:24;100182.00;;;17.80
18782;BMP180;9519;51.890;8.970;2022-07-11T19:15:27;100188.00;;;17.80
18782;BMP180;9519;51.890;8.970;2022-07-11T19:20:29;100182.00;;;17.80
18782;BMP180;9519;51.890;8.970;2022-07-11T19:25:32;100193.00;;;17.80
18782;BMP180;9519;51.890;8.970;2022-07-11T19:30:34;100190.00;;;17.70
18782;BMP180;9519;51.890;8.970;2022-07-11T19:35:36;100189.00;;;17.70
18782;BMP180;9519;51.890;8.970;2022-07-11T19:40:41;100195.00;;;17.70
18782;BMP180;9519;51.890;8.970;2022-07-11T19:45:44;100199.00;;;17.70
18782;BMP180;9519;51.890;8.970;2022-07-11T19:50:46;100199.00;;;17.60
18782;BMP180;9519;51.890;8.970;2022-07-11T19:55:50;100207.00;;;17.60
18782;BMP180;9519;51.890;8.970;2022-07-11T20:01:09;100205.00;;;17.50
18782;BMP180;9519;51.890;8.970;2022-07-11T20:06:11;100209.00;;;17.50
18782;BMP180;9519;51.890;8.970;2022-07-11T20:11:15;100210.00;;;17.40
18782;BMP180;9519;51.890;8.970;2022-07-11T20:16:17;100220.00;;;17.40
18782;BMP180;9519;51.890;8.970;2022-07-11T20:21:19;100116.00;;;17.30
18782;BMP180;9519;51.890;8.970;2022-07-11T20:26:23;100121.00;;;17.20
18782;BMP180;9519;51.890;8.970;2022-07-11T20:31:25;100124.00;;;17.20
18782;BMP180;9519;51.890;8.970;2022-07-11T20:36:27;100128.00;;;17.10
18782;BMP180;9519;51.890;8.970;2022-07-11T20:41:30;100124.00;;;17.10
18782;BMP180;9519;51.890;8.970;2022-07-11T20:46:33;100122.00;;;17.00
18782;BMP180;9519;51.890;8.970;2022-07-11T20:51:35;100127.00;;;17.00
18782;BMP180;9519;51.890;8.970;2022-07-11T20:56:39;100123.00;;;17.00
18782;BMP180;9519;51.890;8.970;2022-07-11T21:01:41;100132.00;;;16.90
18782;BMP180;9519;51.890;8.970;2022-07-11T21:06:43;100126.00;;;16.80
18782;BMP180;9519;51.890;8.970;2022-07-11T21:11:47;100135.00;;;16.70
18782;BMP180;9519;51.890;8.970;2022-07-11T21:16:49;100129.00;;;16.60
18782;BMP180;9519;51.890;8.970;2022-07-11T21:21:51;100126.00;;;16.50
18782;BMP180;9519;51.890;8.970;2022-07-11T21:26:54;100130.00;;;16.50
18782;BMP180;9519;51.890;8.970;2022-07-11T21:31:56;100128.00;;;16.40
18782;BMP180;9519;51.890;8.970;2022-07-11T21:36:58;100134.00;;;16.20
18782;BMP180;9519;51.890;8.970;2022-07-11T21:42:03;100141.00;;;16.20
18782;BMP180;9519;51.890;8.970;2022-07-11T21:47:05;100136.00;;;16.10
18782;BMP180;9519;51.890;8.970;2022-07-11T21:52:07;100132.00;;;16.00
18782;BMP180;9519;51.890;8.970;2022-07-11T21:57:10;100140.00;;;16.00
18782;BMP180;9519;51.890;8.970;2022-07-11T22:02:12;100148.00;;;16.00
18782;BMP180;9519;51.890;8.970;2022-07-11T22:07:15;100139.00;;;15.90
18782;BMP180;9519;51.890;8.970;2022-07-11T22:12:18;100147.00;;;15.80
18782;BMP180;9519;51.890;8.970;2022-07-11T22:17:20;100147.00;;;15.70
18782;BMP180;9519;51.890;8.970;2022-07-11T22:22:23;100132.00;;;15.60
18782;BMP180;9519;51.890;8.970;2022-07-11T22:27:26;100144.00;;;15.50
18782;BMP180;9519;51.890;8.970;2022-07-11T22:32:28;100134.00;;;15.50
18782;BMP180;9519;51.890;8.970;2022-07-11T22:37:31;100131.00;;;15.50
18782;BMP180;9519;51.890;8.970;2022-07-11T22:42:34;100133.00;;;15.50
18782;BMP180;9519;51.890;8.970;2022-07-11T22:47:56;100130.00;;;15.40
18782;BMP180;9519;51.890;8.970;2022-07-11T22:52:58;100132.00;;;15.40
18782;BMP180;9519;51.890;8.970;2022-07-11T22:58:02;100131.00;;;15.30
18782;BMP180;9519;51.890;8.970;2022-07-11T23:03:05;100136.00;;;15.30
18782;BMP180;9519;51.890;8.970;2022-07-11T23:08:07;100133.00;;;15.20
18782;BMP180;9519;51.890;8.970;2022-07-11T23:13:10;100140.00;;;15.10
18782;BMP180;9519;51.890;8.970;2022-07-11T23:18:12;100137.00;;;15.10
18782;BMP180;9519;51.890;8.970;2022-07-11T23:23:15;100135.00;;;15.00
18782;BMP180;9519;51.890;8.970;2022-07-11T23:28:18;100135.00;;;15.00
18782;BMP180;9519;51.890;8.970;2022-07-11T23:33:20;100132.00;;;15.00
18782;BMP180;9519;51.890;8.970;2022-07-11T23:38:22;100131.00;;;14.90
18782;BMP180;9519;51.890;8.970;2022-07-11T23:43:26;100143.00;;;14.90
18782;BMP180;9519;51.890;8.970;2022-07-11T23:48:28;100130.00;;;14.80
18782;BMP180;9519;51.890;8.970;2022-07-11T23:53:30;100127.00;;;14.80
18782;BMP180;9519;51.890;8.970;2022-07-11T23:58:33;100134.00;;;14.80
